sensor_id;sensor_type;location;lat;lon;timestamp;P1;durP1;ratioP1;P2;durP2;ratioP2
69310;SDS011;56430;48.154;16.458;2022-12-18T00:02:22;7.82;;;2.58;;
69310;SDS011;56430;48.154;16.458;2022-12-18T00:04:49;10.57;;;2.67;;
69310;SDS011;56430;48.154;16.458;2022-12-18T00:07:17;6.78;;;2.33;;
69310;SDS011;56430;48.154;16.458;2022-12-18T00:09:44;7.87;;;2.60;;
69310;SDS011;56430;48.154;16.458;2022-12-18T00:12:12;7.18;;;2.58;;
69310;SDS011;56430;48.154;16.458;2022-12-18T00:14:40;9.88;;;3.10;;
69310;SDS011;56430;48.154;16.458;2022-12-18T00:17:10;9.82;;;2.92;;
69310;SDS011;56430;48.154;16.458;2022-12-18T00:19:38;8.88;;;3.20;;
69310;SDS011;56430;48.154;16.458;2022-12-18T00:22:05;7.33;;;2.40;;
69310;SDS011;56430;48.154;16.458;2022-12-18T00:24:32;8.65;;;2.42;;
69310;SDS011;56430;48.154;16.458;2022-12-18T00:26:59;7.35;;;2.55;;
69310;SDS011;56430;48.154;16.458;2022-12-18T00:29:27;7.32;;;2.53;;
69310;SDS011;56430;48.154;16.458;2022-12-18T00:31:55;7.88;;;2.67;;
69310;SDS011;56430;48.154;16.458;2022-12-18T00:34:22;6.90;;;2.57;;
69310;SDS011;56430;48.154;16.458;2022-12-18T00:36:50;7.53;;;2.88;;
69310;SDS011;56430;48.154;16.458;2022-12-18T00:39:17;7.35;;;2.28;;
69310;SDS011;56430;48.154;16.458;2022-12-18T00:41:44;8.40;;;2.67;;
69310;SDS011;56430;48.154;16.458;2022-12-18T00:44:29;5.72;;;2.20;;
69310;SDS011;56430;48.154;16.458;2022-12-18T00:46:58;7.60;;;2.47;;
69310;SDS011;56430;48.154;16.458;2022-12-18T00:49:25;8.70;;;2.75;;
69310;SDS011;56430;48.154;16.458;2022-12-18T00:51:52;5.35;;;2.17;;
69310;SDS011;56430;48.154;16.458;2022-12-18T00:54:20;7.72;;;2.47;;
69310;SDS011;56430;48.154;16.458;2022-12-18T00:56:47;12.05;;;3.47;;
69310;SDS011;56430;48.154;16.458;2022-12-18T00:59:14;7.73;;;2.43;;
69310;SDS011;56430;48.154;16.458;2022-12-18T01:01:41;7.13;;;2.50;;
69310;SDS011;56430;48.154;16.458;2022-12-18T01:04:10;8.50;;;2.70;;
69310;SDS011;56430;48.154;16.458;2022-12-18T01:06:37;12.35;;;3.20;;
69310;SDS011;56430;48.154;16.458;2022-12-18T01:09:05;9.50;;;2.72;;
69310;SDS011;56430;48.154;16.458;2022-12-18T01:11:32;9.43;;;3.53;;
69310;SDS011;56430;48.154;16.458;2022-12-18T01:13:59;13.55;;;3.60;;
69310;SDS011;56430;48.154;16.458;2022-12-18T01:16:26;11.60;;;3.22;;
69310;SDS011;56430;48.154;16.458;2022-12-18T01:18:54;9.88;;;3.20;;
69310;SDS011;56430;48.154;16.458;2022-12-18T01:21:23;11.82;;;3.90;;
69310;SDS011;56430;48.154;16.458;2022-12-18T01:23:51;12.93;;;4.10;;
69310;SDS011;56430;48.154;16.458;2022-12-18T01:26:18;10.90;;;3.83;;
69310;SDS011;56430;48.154;16.458;2022-12-18T01:28:46;10.27;;;3.67;;
69310;SDS011;56430;48.154;16.458;2022-12-18T01:31:14;10.15;;;3.58;;
69310;SDS011;56430;48.154;16.458;2022-12-18T01:36:15;6.73;;;2.73;;
69310;SDS011;56430;48.154;16.458;2022-12-18T01:38:45;8.30;;;2.97;;
69310;SDS011;56430;48.154;16.458;2022-12-18T01:41:14;12.05;;;3.72;;
69310;SDS011;56430;48.154;16.458;2022-12-18T01:43:43;13.75;;;4.28;;
69310;SDS011;56430;48.154;16.458;2022-12-18T01:46:11;9.15;;;3.58;;
69310;SDS011;56430;48.154;16.458;2022-12-18T01:48:38;12.30;;;4.07;;
69310;SDS011;56430;48.154;16.458;2022-12-18T01:51:06;11.40;;;3.50;;
69310;SDS011;56430;48.154;16.458;2022-12-18T01:53:36;14.25;;;3.80;;
69310;SDS011;56430;48.154;16.458;2022-12-18T01:56:06;11.63;;;4.15;;
69310;SDS011;56430;48.154;16.458;2022-12-18T01:58:35;14.55;;;3.95;;
69310;SDS011;56430;48.154;16.458;2022-12-18T02:01:06;9.17;;;3.43;;
69310;SDS011;56430;48.154;16.458;2022-12-18T02:03:33;13.85;;;4.70;;
69310;SDS011;56430;48.154;16.458;2022-12-18T02:06:02;10.95;;;3.55;;
69310;SDS011;56430;48.154;16.458;2022-12-18T02:08:34;15.82;;;4.70;;
69310;SDS011;56430;48.154;16.458;2022-12-18T02:11:07;14.60;;;4.70;;
69310;SDS011;56430;48.154;16.458;2022-12-18T02:13:38;16.13;;;4.80;;
69310;SDS011;56430;48.154;16.458;2022-12-18T02:16:10;13.82;;;4.50;;
69310;SDS011;56430;48.154;16.458;2022-12-18T02:18:41;14.55;;;4.78;;
69310;SDS011;56430;48.154;16.458;2022-12-18T02:21:13;13.98;;;4.82;;
69310;SDS011;56430;48.154;16.458;2022-12-18T02:23:47;12.57;;;4.43;;
69310;SDS011;56430;48.154;16.458;2022-12-18T02:26:21;13.97;;;3.90;;
69310;SDS011;56430;48.154;16.458;2022-12-18T02:28:53;15.95;;;4.45;;
69310;SDS011;56430;48.154;16.458;2022-12-18T02:31:23;15.48;;;4.30;;
69310;SDS011;56430;48.154;16.458;2022-12-18T02:33:53;14.30;;;4.60;;
69310;SDS011;56430;48.154;16.458;2022-12-18T02:36:23;13.43;;;4.53;;
69310;SDS011;56430;48.154;16.458;2022-12-18T02:38:52;15.20;;;4.80;;
69310;SDS011;56430;48.154;16.458;2022-12-18T02:41:21;14.48;;;5.32;;
69310;SDS011;56430;48.154;16.458;2022-12-18T02:43:53;12.13;;;4.65;;
69310;SDS011;56430;48.154;16.458;2022-12-18T02:46:27;12.90;;;4.90;;
69310;SDS011;56430;48.154;16.458;2022-12-18T02:49:10;14.98;;;4.93;;
69310;SDS011;56430;48.154;16.458;2022-12-18T02:51:44;15.40;;;4.80;;
69310;SDS011;56430;48.154;16.458;2022-12-18T02:54:20;15.55;;;4.28;;
69310;SDS011;56430;48.154;16.458;2022-12-18T02:56:54;12.30;;;4.40;;
69310;SDS011;56430;48.154;16.458;2022-12-18T02:59:23;11.93;;;4.75;;
69310;SDS011;56430;48.154;16.458;2022-12-18T03:01:56;14.68;;;5.45;;
69310;SDS011;56430;48.154;16.458;2022-12-18T03:04:28;17.33;;;4.60;;
69310;SDS011;56430;48.154;16.458;2022-12-18T03:07:01;14.70;;;4.88;;
69310;SDS011;56430;48.154;16.458;2022-12-18T03:09:31;15.77;;;4.68;;
69310;SDS011;56430;48.154;16.458;2022-12-18T03:12:02;19.30;;;5.10;;
69310;SDS011;56430;48.154;16.458;2022-12-18T03:14:50;16.70;;;5.22;;
69310;SDS011;56430;48.154;16.458;2022-12-18T03:17:20;13.70;;;4.80;;
69310;SDS011;56430;48.154;16.458;2022-12-18T03:19:52;13.40;;;5.10;;
69310;SDS011;56430;48.154;16.458;2022-12-18T03:22:20;18.15;;;5.78;;
69310;SDS011;56430;48.154;16.458;2022-12-18T03:24:47;15.50;;;6.15;;
69310;SDS011;56430;48.154;16.458;2022-12-18T03:27:17;16.42;;;5.32;;
69310;SDS011;56430;48.154;16.458;2022-12-18T03:29:47;15.07;;;5.23;;
69310;SDS011;56430;48.154;16.458;2022-12-18T03:32:19;14.40;;;5.03;;
69310;SDS011;56430;48.154;16.458;2022-12-18T03:34:50;13.95;;;4.60;;
69310;SDS011;56430;48.154;16.458;2022-12-18T03:37:17;17.70;;;5.97;;
69310;SDS011;56430;48.154;16.458;2022-12-18T03:39:44;17.52;;;5.28;;
69310;SDS011;56430;48.154;16.458;2022-12-18T03:42:13;15.23;;;5.13;;
69310;SDS011;56430;48.154;16.458;2022-12-18T03:44:44;15.73;;;5.30;;
69310;SDS011;56430;48.154;16.458;2022-12-18T03:47:19;13.57;;;5.10;;
69310;SDS011;56430;48.154;16.458;2022-12-18T03:49:53;13.32;;;4.72;;
69310;SDS011;56430;48.154;16.458;2022-12-18T03:52:23;17.95;;;5.45;;
69310;SDS011;56430;48.154;16.458;2022-12-18T03:54:53;14.23;;;4.70;;
69310;SDS011;56430;48.154;16.458;2022-12-18T03:57:24;15.38;;;5.45;;
69310;SDS011;56430;48.154;16.458;2022-12-18T03:59:54;18.45;;;5.75;;
69310;SDS011;56430;48.154;16.458;2022-12-18T04:02:25;16.17;;;4.70;;
69310;SDS011;56430;48.154;16.458;2022-12-18T04:04:55;15.60;;;5.07;;
69310;SDS011;56430;48.154;16.458;2022-12-18T04:07:25;16.90;;;5.47;;
69310;SDS011;56430;48.154;16.458;2022-12-18T04:09:52;17.98;;;5.45;;
69310;SDS011;56430;48.154;16.458;2022-12-18T04:12:24;14.30;;;4.75;;
69310;SDS011;56430;48.154;16.458;2022-12-18T04:14:52;13.55;;;5.75;;
69310;SDS011;56430;48.154;16.458;2022-12-18T04:17:19;17.35;;;5.57;;
69310;SDS011;56430;48.154;16.458;2022-12-18T04:19:46;15.37;;;5.27;;
69310;SDS011;56430;48.154;16.458;2022-12-18T04:22:14;18.70;;;5.47;;
69310;SDS011;56430;48.154;16.458;2022-12-18T04:24:41;15.25;;;5.15;;
69310;SDS011;56430;48.154;16.458;2022-12-18T04:27:08;15.95;;;5.97;;
69310;SDS011;56430;48.154;16.458;2022-12-18T04:29:37;21.60;;;6.80;;
69310;SDS011;56430;48.154;16.458;2022-12-18T04:32:04;16.63;;;6.30;;
69310;SDS011;56430;48.154;16.458;2022-12-18T04:34:31;18.40;;;5.72;;
69310;SDS011;56430;48.154;16.458;2022-12-18T04:36:58;19.58;;;6.15;;
69310;SDS011;56430;48.154;16.458;2022-12-18T04:39:27;17.10;;;5.55;;
69310;SDS011;56430;48.154;16.458;2022-12-18T04:41:54;16.17;;;5.53;;
69310;SDS011;56430;48.154;16.458;2022-12-18T04:44:21;19.40;;;5.83;;
69310;SDS011;56430;48.154;16.458;2022-12-18T04:46:49;17.98;;;6.07;;
69310;SDS011;56430;48.154;16.458;2022-12-18T04:49:19;19.60;;;5.97;;
69310;SDS011;56430;48.154;16.458;2022-12-18T04:51:47;16.13;;;5.82;;
69310;SDS011;56430;48.154;16.458;2022-12-18T04:54:14;18.90;;;6.93;;
69310;SDS011;56430;48.154;16.458;2022-12-18T04:56:41;17.10;;;5.63;;
69310;SDS011;56430;48.154;16.458;2022-12-18T04:59:08;20.73;;;6.75;;
69310;SDS011;56430;48.154;16.458;2022-12-18T05:01:35;19.58;;;6.28;;
69310;SDS011;56430;48.154;16.458;2022-12-18T05:04:04;17.33;;;5.50;;
69310;SDS011;56430;48.154;16.458;2022-12-18T05:06:31;17.27;;;6.13;;
69310;SDS011;56430;48.154;16.458;2022-12-18T05:08:59;23.37;;;5.47;;
69310;SDS011;56430;48.154;16.458;2022-12-18T05:11:26;15.55;;;5.35;;
69310;SDS011;56430;48.154;16.458;2022-12-18T05:13:53;17.38;;;6.20;;
69310;SDS011;56430;48.154;16.458;2022-12-18T05:16:20;22.67;;;6.18;;
69310;SDS011;56430;48.154;16.458;2022-12-18T05:18:48;18.02;;;5.47;;
69310;SDS011;56430;48.154;16.458;2022-12-18T05:21:16;17.07;;;5.67;;
69310;SDS011;56430;48.154;16.458;2022-12-18T05:23:43;15.65;;;5.57;;
69310;SDS011;56430;48.154;16.458;2022-12-18T05:26:23;17.27;;;5.35;;
69310;SDS011;56430;48.154;16.458;2022-12-18T05:28:50;24.17;;;6.57;;
69310;SDS011;56430;48.154;16.458;2022-12-18T05:31:17;18.88;;;6.35;;
69310;SDS011;56430;48.154;16.458;2022-12-18T05:33:44;16.83;;;6.00;;
69310;SDS011;56430;48.154;16.458;2022-12-18T05:36:11;18.70;;;5.93;;
69310;SDS011;56430;48.154;16.458;2022-12-18T05:38:40;21.70;;;6.18;;
69310;SDS011;56430;48.154;16.458;2022-12-18T05:41:08;13.50;;;5.45;;
69310;SDS011;56430;48.154;16.458;2022-12-18T05:43:36;14.50;;;5.70;;
69310;SDS011;56430;48.154;16.458;2022-12-18T05:46:04;20.50;;;6.40;;
69310;SDS011;56430;48.154;16.458;2022-12-18T05:48:32;19.02;;;6.10;;
69310;SDS011;56430;48.154;16.458;2022-12-18T05:51:03;19.23;;;6.40;;
69310;SDS011;56430;48.154;16.458;2022-12-18T05:53:32;20.00;;;6.13;;
69310;SDS011;56430;48.154;16.458;2022-12-18T05:56:01;17.10;;;6.57;;
69310;SDS011;56430;48.154;16.458;2022-12-18T05:58:29;15.80;;;5.57;;
69310;SDS011;56430;48.154;16.458;2022-12-18T06:00:57;23.67;;;6.07;;
69310;SDS011;56430;48.154;16.458;2022-12-18T06:03:26;16.27;;;4.82;;
69310;SDS011;56430;48.154;16.458;2022-12-18T06:05:54;16.30;;;5.45;;
69310;SDS011;56430;48.154;16.458;2022-12-18T06:08:21;17.30;;;6.40;;
69310;SDS011;56430;48.154;16.458;2022-12-18T06:10:51;20.57;;;6.70;;
69310;SDS011;56430;48.154;16.458;2022-12-18T06:13:20;18.52;;;5.88;;
69310;SDS011;56430;48.154;16.458;2022-12-18T06:15:47;16.65;;;4.95;;
69310;SDS011;56430;48.154;16.458;2022-12-18T06:18:14;24.63;;;7.00;;
69310;SDS011;56430;48.154;16.458;2022-12-18T06:20:42;20.48;;;6.90;;
69310;SDS011;56430;48.154;16.458;2022-12-18T06:23:09;17.20;;;5.47;;
69310;SDS011;56430;48.154;16.458;2022-12-18T06:25:37;14.43;;;5.22;;
69310;SDS011;56430;48.154;16.458;2022-12-18T06:28:05;18.75;;;5.80;;
69310;SDS011;56430;48.154;16.458;2022-12-18T06:30:34;16.70;;;5.50;;
69310;SDS011;56430;48.154;16.458;2022-12-18T06:33:01;23.88;;;6.88;;
69310;SDS011;56430;48.154;16.458;2022-12-18T06:35:29;15.57;;;5.37;;
69310;SDS011;56430;48.154;16.458;2022-12-18T06:37:56;13.50;;;5.20;;
69310;SDS011;56430;48.154;16.458;2022-12-18T06:40:23;23.70;;;6.25;;
69310;SDS011;56430;48.154;16.458;2022-12-18T06:42:50;17.60;;;6.43;;
69310;SDS011;56430;48.154;16.458;2022-12-18T06:45:17;13.80;;;4.55;;
69310;SDS011;56430;48.154;16.458;2022-12-18T06:47:46;15.40;;;5.13;;
69310;SDS011;56430;48.154;16.458;2022-12-18T06:50:13;17.67;;;5.70;;
69310;SDS011;56430;48.154;16.458;2022-12-18T06:55:41;16.17;;;6.10;;
69310;SDS011;56430;48.154;16.458;2022-12-18T06:58:09;16.55;;;5.70;;
69310;SDS011;56430;48.154;16.458;2022-12-18T07:00:36;19.43;;;6.27;;
69310;SDS011;56430;48.154;16.458;2022-12-18T07:03:07;18.92;;;5.95;;
69310;SDS011;56430;48.154;16.458;2022-12-18T07:05:34;16.40;;;5.10;;
69310;SDS011;56430;48.154;16.458;2022-12-18T07:08:06;16.75;;;5.43;;
69310;SDS011;56430;48.154;16.458;2022-12-18T07:10:34;16.55;;;4.78;;
69310;SDS011;56430;48.154;16.458;2022-12-18T07:13:08;14.50;;;5.93;;
69310;SDS011;56430;48.154;16.458;2022-12-18T07:18:58;22.80;;;7.93;;
69310;SDS011;56430;48.154;16.458;2022-12-18T07:21:25;24.60;;;7.45;;
69310;SDS011;56430;48.154;16.458;2022-12-18T07:23:53;23.88;;;7.95;;
69310;SDS011;56430;48.154;16.458;2022-12-18T07:26:20;20.70;;;7.13;;
69310;SDS011;56430;48.154;16.458;2022-12-18T07:28:48;21.73;;;7.35;;
69310;SDS011;56430;48.154;16.458;2022-12-18T07:31:17;26.17;;;8.60;;
69310;SDS011;56430;48.154;16.458;2022-12-18T07:33:45;23.98;;;7.75;;
69310;SDS011;56430;48.154;16.458;2022-12-18T07:36:14;23.85;;;7.70;;
69310;SDS011;56430;48.154;16.458;2022-12-18T07:38:42;31.60;;;9.07;;
69310;SDS011;56430;48.154;16.458;2022-12-18T07:41:10;23.98;;;7.78;;
69310;SDS011;56430;48.154;16.458;2022-12-18T07:43:38;24.23;;;7.85;;
69310;SDS011;56430;48.154;16.458;2022-12-18T07:46:06;25.23;;;8.70;;
69310;SDS011;56430;48.154;16.458;2022-12-18T07:48:33;25.42;;;8.25;;
69310;SDS011;56430;48.154;16.458;2022-12-18T07:51:01;23.93;;;8.87;;
69310;SDS011;56430;48.154;16.458;2022-12-18T07:53:31;23.40;;;8.40;;
69310;SDS011;56430;48.154;16.458;2022-12-18T07:55:59;23.50;;;8.55;;
69310;SDS011;56430;48.154;16.458;2022-12-18T07:58:28;21.17;;;7.80;;
69310;SDS011;56430;48.154;16.458;2022-12-18T08:01:01;24.75;;;8.60;;
69310;SDS011;56430;48.154;16.458;2022-12-18T08:03:29;24.27;;;7.67;;
69310;SDS011;56430;48.154;16.458;2022-12-18T08:05:58;24.35;;;7.97;;
69310;SDS011;56430;48.154;16.458;2022-12-18T08:08:25;24.67;;;8.70;;
69310;SDS011;56430;48.154;16.458;2022-12-18T08:10:54;22.95;;;8.05;;
69310;SDS011;56430;48.154;16.458;2022-12-18T08:13:21;24.48;;;8.80;;
69310;SDS011;56430;48.154;16.458;2022-12-18T08:15:55;32.27;;;11.20;;
69310;SDS011;56430;48.154;16.458;2022-12-18T08:18:23;36.13;;;10.48;;
69310;SDS011;56430;48.154;16.458;2022-12-18T08:20:53;30.13;;;9.00;;
69310;SDS011;56430;48.154;16.458;2022-12-18T08:23:24;37.30;;;11.07;;
69310;SDS011;56430;48.154;16.458;2022-12-18T08:25:51;32.45;;;10.80;;
69310;SDS011;56430;48.154;16.458;2022-12-18T08:28:19;27.27;;;9.83;;
69310;SDS011;56430;48.154;16.458;2022-12-18T08:30:50;26.67;;;9.05;;
69310;SDS011;56430;48.154;16.458;2022-12-18T08:33:18;28.92;;;10.68;;
69310;SDS011;56430;48.154;16.458;2022-12-18T08:35:45;29.95;;;10.68;;
69310;SDS011;56430;48.154;16.458;2022-12-18T08:38:12;45.55;;;12.93;;
69310;SDS011;56430;48.154;16.458;2022-12-18T08:40:39;35.60;;;12.07;;
69310;SDS011;56430;48.154;16.458;2022-12-18T08:43:07;50.17;;;13.63;;
69310;SDS011;56430;48.154;16.458;2022-12-18T08:45:53;38.13;;;10.98;;
69310;SDS011;56430;48.154;16.458;2022-12-18T08:48:20;39.33;;;10.98;;
69310;SDS011;56430;48.154;16.458;2022-12-18T08:50:53;30.73;;;9.88;;
69310;SDS011;56430;48.154;16.458;2022-12-18T08:53:21;29.67;;;9.47;;
69310;SDS011;56430;48.154;16.458;2022-12-18T08:55:51;30.40;;;9.63;;
69310;SDS011;56430;48.154;16.458;2022-12-18T08:58:18;24.52;;;8.60;;
69310;SDS011;56430;48.154;16.458;2022-12-18T09:00:46;27.85;;;8.80;;
69310;SDS011;56430;48.154;16.458;2022-12-18T09:03:14;27.50;;;9.20;;
69310;SDS011;56430;48.154;16.458;2022-12-18T09:05:43;25.17;;;9.43;;
69310;SDS011;56430;48.154;16.458;2022-12-18T09:08:10;28.30;;;10.10;;
69310;SDS011;56430;48.154;16.458;2022-12-18T09:10:41;27.38;;;9.50;;
69310;SDS011;56430;48.154;16.458;2022-12-18T09:13:09;24.73;;;9.40;;
69310;SDS011;56430;48.154;16.458;2022-12-18T09:15:39;24.25;;;9.20;;
69310;SDS011;56430;48.154;16.458;2022-12-18T09:18:07;28.20;;;9.80;;
69310;SDS011;56430;48.154;16.458;2022-12-18T09:20:36;28.63;;;9.45;;
69310;SDS011;56430;48.154;16.458;2022-12-18T09:23:03;28.30;;;9.50;;
69310;SDS011;56430;48.154;16.458;2022-12-18T09:25:30;27.42;;;9.75;;
69310;SDS011;56430;48.154;16.458;2022-12-18T09:27:58;24.52;;;9.40;;
69310;SDS011;56430;48.154;16.458;2022-12-18T09:30:25;28.27;;;10.27;;
69310;SDS011;56430;48.154;16.458;2022-12-18T09:32:53;25.17;;;9.13;;
69310;SDS011;56430;48.154;16.458;2022-12-18T09:35:20;27.90;;;10.15;;
69310;SDS011;56430;48.154;16.458;2022-12-18T09:37:49;25.65;;;10.18;;
69310;SDS011;56430;48.154;16.458;2022-12-18T09:40:16;28.10;;;10.68;;
69310;SDS011;56430;48.154;16.458;2022-12-18T09:42:47;27.97;;;10.53;;
69310;SDS011;56430;48.154;16.458;2022-12-18T09:45:17;30.75;;;10.85;;
69310;SDS011;56430;48.154;16.458;2022-12-18T09:47:45;32.10;;;10.82;;
69310;SDS011;56430;48.154;16.458;2022-12-18T09:50:17;27.98;;;10.75;;
69310;SDS011;56430;48.154;16.458;2022-12-18T09:52:53;25.23;;;9.52;;
69310;SDS011;56430;48.154;16.458;2022-12-18T09:55:23;28.27;;;9.60;;
69310;SDS011;56430;48.154;16.458;2022-12-18T09:57:52;30.35;;;8.73;;
69310;SDS011;56430;48.154;16.458;2022-12-18T10:00:22;25.95;;;9.50;;
69310;SDS011;56430;48.154;16.458;2022-12-18T10:02:50;23.58;;;8.95;;
69310;SDS011;56430;48.154;16.458;2022-12-18T10:05:20;26.75;;;9.32;;
69310;SDS011;56430;48.154;16.458;2022-12-18T10:07:58;28.07;;;10.77;;
69310;SDS011;56430;48.154;16.458;2022-12-18T10:10:30;27.55;;;9.48;;
69310;SDS011;56430;48.154;16.458;2022-12-18T10:13:02;27.38;;;9.07;;
69310;SDS011;56430;48.154;16.458;2022-12-18T10:15:36;23.42;;;8.48;;
69310;SDS011;56430;48.154;16.458;2022-12-18T10:18:12;26.65;;;9.48;;
69310;SDS011;56430;48.154;16.458;2022-12-18T10:20:48;25.30;;;8.30;;
69310;SDS011;56430;48.154;16.458;2022-12-18T10:23:19;27.38;;;9.45;;
69310;SDS011;56430;48.154;16.458;2022-12-18T10:25:51;25.55;;;8.55;;
69310;SDS011;56430;48.154;16.458;2022-12-18T10:28:21;29.50;;;10.02;;
69310;SDS011;56430;48.154;16.458;2022-12-18T10:30:50;27.67;;;9.25;;
69310;SDS011;56430;48.154;16.458;2022-12-18T10:33:18;25.40;;;8.73;;
69310;SDS011;56430;48.154;16.458;2022-12-18T10:35:47;25.55;;;8.63;;
69310;SDS011;56430;48.154;16.458;2022-12-18T10:38:24;28.13;;;9.48;;
69310;SDS011;56430;48.154;16.458;2022-12-18T10:40:53;24.73;;;8.52;;
69310;SDS011;56430;48.154;16.458;2022-12-18T10:43:23;29.15;;;9.68;;
69310;SDS011;56430;48.154;16.458;2022-12-18T10:45:59;30.63;;;10.07;;
69310;SDS011;56430;48.154;16.458;2022-12-18T10:48:41;31.60;;;10.85;;
69310;SDS011;56430;48.154;16.458;2022-12-18T10:51:19;29.83;;;10.45;;
69310;SDS011;56430;48.154;16.458;2022-12-18T10:53:52;29.58;;;9.75;;
69310;SDS011;56430;48.154;16.458;2022-12-18T10:56:22;24.63;;;8.07;;
69310;SDS011;56430;48.154;16.458;2022-12-18T10:58:55;28.50;;;10.30;;
69310;SDS011;56430;48.154;16.458;2022-12-18T11:01:24;22.00;;;7.88;;
69310;SDS011;56430;48.154;16.458;2022-12-18T11:03:58;23.33;;;8.68;;
69310;SDS011;56430;48.154;16.458;2022-12-18T11:06:27;33.90;;;10.30;;
69310;SDS011;56430;48.154;16.458;2022-12-18T11:09:01;28.85;;;9.68;;
69310;SDS011;56430;48.154;16.458;2022-12-18T11:11:30;31.40;;;11.23;;
69310;SDS011;56430;48.154;16.458;2022-12-18T11:13:59;27.80;;;9.23;;
69310;SDS011;56430;48.154;16.458;2022-12-18T11:16:29;31.65;;;10.90;;
69310;SDS011;56430;48.154;16.458;2022-12-18T11:19:07;27.38;;;10.05;;
69310;SDS011;56430;48.154;16.458;2022-12-18T11:21:39;29.45;;;10.43;;
69310;SDS011;56430;48.154;16.458;2022-12-18T11:24:10;29.87;;;9.40;;
69310;SDS011;56430;48.154;16.458;2022-12-18T11:26:46;29.33;;;9.13;;
69310;SDS011;56430;48.154;16.458;2022-12-18T11:29:16;26.50;;;9.57;;
69310;SDS011;56430;48.154;16.458;2022-12-18T11:31:43;25.33;;;9.70;;
69310;SDS011;56430;48.154;16.458;2022-12-18T11:34:11;31.73;;;10.00;;
69310;SDS011;56430;48.154;16.458;2022-12-18T11:36:42;24.67;;;9.37;;
69310;SDS011;56430;48.154;16.458;2022-12-18T11:39:15;26.23;;;10.23;;
69310;SDS011;56430;48.154;16.458;2022-12-18T11:41:47;27.58;;;10.40;;
69310;SDS011;56430;48.154;16.458;2022-12-18T11:44:35;29.88;;;10.13;;
69310;SDS011;56430;48.154;16.458;2022-12-18T11:47:09;33.92;;;10.32;;
69310;SDS011;56430;48.154;16.458;2022-12-18T11:49:42;26.80;;;8.60;;
69310;SDS011;56430;48.154;16.458;2022-12-18T11:52:10;26.08;;;9.35;;
69310;SDS011;56430;48.154;16.458;2022-12-18T11:54:43;27.88;;;10.07;;
69310;SDS011;56430;48.154;16.458;2022-12-18T11:57:14;28.27;;;9.25;;
69310;SDS011;56430;48.154;16.458;2022-12-18T11:59:47;30.52;;;10.13;;
69310;SDS011;56430;48.154;16.458;2022-12-18T12:02:26;30.43;;;10.90;;
69310;SDS011;56430;48.154;16.458;2022-12-18T12:05:05;29.30;;;9.95;;
69310;SDS011;56430;48.154;16.458;2022-12-18T12:07:46;34.30;;;10.43;;
69310;SDS011;56430;48.154;16.458;2022-12-18T12:10:25;33.72;;;10.27;;
69310;SDS011;56430;48.154;16.458;2022-12-18T12:13:07;35.88;;;12.15;;
69310;SDS011;56430;48.154;16.458;2022-12-18T12:15:45;30.40;;;9.77;;
69310;SDS011;56430;48.154;16.458;2022-12-18T12:18:22;29.73;;;10.40;;
69310;SDS011;56430;48.154;16.458;2022-12-18T12:20:56;31.15;;;10.05;;
69310;SDS011;56430;48.154;16.458;2022-12-18T12:23:31;27.85;;;9.68;;
69310;SDS011;56430;48.154;16.458;2022-12-18T12:26:05;26.85;;;10.43;;
69310;SDS011;56430;48.154;16.458;2022-12-18T12:28:42;28.83;;;10.23;;
69310;SDS011;56430;48.154;16.458;2022-12-18T12:31:20;25.02;;;9.18;;
69310;SDS011;56430;48.154;16.458;2022-12-18T12:33:57;31.42;;;10.70;;
69310;SDS011;56430;48.154;16.458;2022-12-18T12:36:30;24.98;;;9.02;;
69310;SDS011;56430;48.154;16.458;2022-12-18T12:39:05;26.45;;;9.70;;
69310;SDS011;56430;48.154;16.458;2022-12-18T12:41:34;29.17;;;9.67;;
69310;SDS011;56430;48.154;16.458;2022-12-18T12:44:22;25.13;;;9.38;;
69310;SDS011;56430;48.154;16.458;2022-12-18T12:46:52;26.48;;;9.27;;
69310;SDS011;56430;48.154;16.458;2022-12-18T12:49:24;30.50;;;10.43;;
69310;SDS011;56430;48.154;16.458;2022-12-18T12:51:55;31.60;;;10.50;;
69310;SDS011;56430;48.154;16.458;2022-12-18T12:54:26;26.57;;;10.23;;
69310;SDS011;56430;48.154;16.458;2022-12-18T12:56:57;26.80;;;9.40;;
69310;SDS011;56430;48.154;16.458;2022-12-18T12:59:30;27.17;;;8.95;;
69310;SDS011;56430;48.154;16.458;2022-12-18T13:02:04;32.88;;;10.15;;
69310;SDS011;56430;48.154;16.458;2022-12-18T13:04:39;28.50;;;10.52;;
69310;SDS011;56430;48.154;16.458;2022-12-18T13:07:10;29.63;;;10.37;;
69310;SDS011;56430;48.154;16.458;2022-12-18T13:12:52;28.55;;;9.43;;
69310;SDS011;56430;48.154;16.458;2022-12-18T13:15:22;30.55;;;10.20;;
69310;SDS011;56430;48.154;16.458;2022-12-18T13:18:02;26.63;;;9.95;;
69310;SDS011;56430;48.154;16.458;2022-12-18T13:20:32;30.30;;;10.50;;
69310;SDS011;56430;48.154;16.458;2022-12-18T13:23:00;29.63;;;9.57;;
69310;SDS011;56430;48.154;16.458;2022-12-18T13:25:28;29.17;;;9.98;;
69310;SDS011;56430;48.154;16.458;2022-12-18T13:28:03;32.58;;;10.20;;
69310;SDS011;56430;48.154;16.458;2022-12-18T13:33:38;30.80;;;9.93;;
69310;SDS011;56430;48.154;16.458;2022-12-18T13:39:10;33.33;;;11.90;;
69310;SDS011;56430;48.154;16.458;2022-12-18T13:45:39;32.25;;;11.48;;
69310;SDS011;56430;48.154;16.458;2022-12-18T13:48:18;35.37;;;11.00;;
69310;SDS011;56430;48.154;16.458;2022-12-18T13:50:49;31.65;;;10.25;;
69310;SDS011;56430;48.154;16.458;2022-12-18T13:53:20;29.92;;;11.02;;
69310;SDS011;56430;48.154;16.458;2022-12-18T13:55:48;35.55;;;11.52;;
69310;SDS011;56430;48.154;16.458;2022-12-18T13:58:19;36.10;;;12.32;;
69310;SDS011;56430;48.154;16.458;2022-12-18T14:00:47;38.43;;;12.13;;
69310;SDS011;56430;48.154;16.458;2022-12-18T14:03:16;34.92;;;11.23;;
69310;SDS011;56430;48.154;16.458;2022-12-18T14:05:45;43.00;;;13.27;;
69310;SDS011;56430;48.154;16.458;2022-12-18T14:08:14;37.38;;;12.63;;
69310;SDS011;56430;48.154;16.458;2022-12-18T14:10:42;38.75;;;11.23;;
69310;SDS011;56430;48.154;16.458;2022-12-18T14:13:13;34.93;;;10.53;;
69310;SDS011;56430;48.154;16.458;2022-12-18T14:15:44;36.50;;;11.45;;
69310;SDS011;56430;48.154;16.458;2022-12-18T14:18:19;31.95;;;11.07;;
69310;SDS011;56430;48.154;16.458;2022-12-18T14:20:51;38.25;;;11.57;;
69310;SDS011;56430;48.154;16.458;2022-12-18T14:23:27;34.75;;;11.55;;
69310;SDS011;56430;48.154;16.458;2022-12-18T14:25:55;31.87;;;9.37;;
69310;SDS011;56430;48.154;16.458;2022-12-18T14:28:23;30.60;;;10.68;;
69310;SDS011;56430;48.154;16.458;2022-12-18T14:30:53;31.85;;;10.85;;
69310;SDS011;56430;48.154;16.458;2022-12-18T14:33:21;33.53;;;11.70;;
69310;SDS011;56430;48.154;16.458;2022-12-18T14:35:53;33.47;;;10.00;;
69310;SDS011;56430;48.154;16.458;2022-12-18T14:38:23;31.37;;;10.07;;
69310;SDS011;56430;48.154;16.458;2022-12-18T14:40:55;33.33;;;10.80;;
69310;SDS011;56430;48.154;16.458;2022-12-18T14:43:23;29.35;;;10.00;;
69310;SDS011;56430;48.154;16.458;2022-12-18T14:45:51;32.70;;;10.20;;
69310;SDS011;56430;48.154;16.458;2022-12-18T14:48:21;36.25;;;10.02;;
69310;SDS011;56430;48.154;16.458;2022-12-18T14:50:54;33.17;;;10.80;;
69310;SDS011;56430;48.154;16.458;2022-12-18T14:53:25;24.95;;;8.23;;
69310;SDS011;56430;48.154;16.458;2022-12-18T14:55:58;36.80;;;10.48;;
69310;SDS011;56430;48.154;16.458;2022-12-18T14:58:25;34.47;;;9.90;;